createdAt,value
2018-09-04T00:00:30.174Z,6.70
2018-09-04T00:02:58.212Z,5.60
2018-09-04T00:05:26.292Z,7.00
2018-09-04T00:07:54.340Z,5.67
2018-09-04T00:10:22.400Z,5.90
2018-09-04T00:12:50.597Z,5.63
2018-09-04T00:15:18.619Z,5.23
2018-09-04T00:17:46.664Z,5.50
2018-09-04T00:20:14.709Z,6.73
2018-09-04T00:22:42.736Z,6.07
2018-09-04T00:25:10.769Z,5.97
2018-09-04T00:27:38.814Z,6.47
2018-09-04T00:30:08.840Z,6.07
2018-09-04T00:32:36.882Z,6.20
2018-09-04T00:35:04.978Z,6.77
2018-09-04T00:37:33.013Z,7.43
2018-09-04T00:40:01.073Z,6.20
2018-09-04T00:42:29.101Z,7.30
2018-09-04T00:44:57.133Z,6.57
2018-09-04T00:47:25.179Z,6.50
2018-09-04T00:49:53.214Z,6.53
2018-09-04T00:52:21.292Z,7.53
2018-09-04T00:54:49.316Z,6.97
2018-09-04T00:57:17.364Z,7.17
2018-09-04T00:59:45.399Z,6.40
2018-09-04T01:02:13.441Z,6.33
2018-09-04T01:04:41.555Z,8.93
2018-09-04T01:07:09.592Z,7.40
2018-09-04T01:09:37.620Z,7.87
2018-09-04T01:12:05.783Z,8.10
2018-09-04T01:14:33.964Z,9.00
2018-09-04T01:17:02.004Z,7.37
2018-09-04T01:19:36.705Z,8.13
2018-09-04T01:22:05.221Z,9.53
2018-09-04T01:24:33.255Z,9.70
2018-09-04T01:27:01.300Z,8.70
2018-09-04T01:29:29.359Z,8.87
2018-09-04T01:31:57.387Z,9.63
2018-09-04T01:34:25.435Z,10.67
2018-09-04T01:36:53.507Z,9.47
2018-09-04T01:39:21.532Z,9.95
2018-09-04T01:41:49.573Z,13.67
2018-09-04T01:44:17.613Z,11.22
2018-09-04T01:46:45.666Z,8.90
2018-09-04T01:49:13.705Z,12.58
2018-09-04T01:51:41.751Z,11.40
2018-09-04T01:54:09.789Z,11.07
2018-09-04T01:56:37.948Z,11.53
2018-09-04T01:59:06.167Z,9.73
2018-09-04T02:01:34.712Z,13.53
2018-09-04T02:04:02.763Z,11.83
2018-09-04T02:06:30.788Z,10.33
2018-09-04T02:08:59.314Z,10.13
2018-09-04T02:11:27.416Z,11.33
2018-09-04T02:13:55.489Z,11.23
2018-09-04T02:16:23.541Z,12.13
2018-09-04T02:18:51.587Z,10.27
2018-09-04T02:21:19.625Z,11.30
2018-09-04T02:23:47.702Z,11.50
2018-09-04T02:26:15.745Z,11.63
2018-09-04T02:28:43.784Z,12.07
2018-09-04T02:31:11.825Z,17.67
2018-09-04T02:33:39.904Z,11.03
2018-09-04T02:36:07.951Z,10.23
2018-09-04T02:38:36.038Z,11.40
2018-09-04T02:41:11.544Z,11.35
2018-09-04T02:43:39.597Z,10.77
2018-09-04T02:46:07.653Z,11.27
2018-09-04T02:48:35.716Z,10.90
2018-09-04T02:51:03.776Z,12.10
2018-09-04T02:53:31.848Z,12.57
2018-09-04T02:55:59.885Z,12.90
2018-09-04T02:58:27.944Z,12.13
2018-09-04T03:00:55.980Z,12.40
2018-09-04T03:03:24.141Z,13.30
2018-09-04T03:05:52.198Z,18.77
2018-09-04T03:08:20.259Z,19.17
2018-09-04T03:10:48.300Z,22.00
2018-09-04T03:13:16.381Z,20.43
2018-09-04T03:15:44.422Z,21.27
2018-09-04T03:18:12.492Z,23.33
2018-09-04T03:20:40.558Z,25.13
2018-09-04T03:23:08.764Z,22.07
2018-09-04T03:25:36.777Z,23.30
2018-09-04T03:28:04.840Z,24.57
2018-09-04T03:30:32.905Z,24.93
2018-09-04T03:33:00.975Z,25.70
2018-09-04T03:35:29.058Z,28.70
2018-09-04T03:37:57.088Z,26.50
2018-09-04T03:40:25.179Z,29.13
2018-09-04T03:42:53.248Z,25.20
2018-09-04T03:45:21.302Z,32.50
2018-09-04T03:47:49.370Z,32.33
2018-09-04T03:50:17.437Z,33.33
2018-09-04T03:52:45.497Z,36.43
2018-09-04T03:55:13.604Z,37.20
2018-09-04T03:57:41.700Z,35.50
2018-09-04T04:00:09.783Z,38.27
2018-09-04T04:02:37.858Z,38.47
2018-09-04T04:05:06.012Z,29.90
2018-09-04T04:07:34.082Z,34.87
2018-09-04T04:10:02.150Z,29.03
2018-09-04T04:12:30.178Z,30.90
2018-09-04T04:14:58.233Z,32.50
2018-09-04T04:17:26.276Z,28.90
2018-09-04T04:19:54.325Z,30.87
2018-09-04T04:22:22.404Z,37.73
2018-09-04T04:24:50.451Z,34.00
2018-09-04T04:27:18.489Z,29.57
2018-09-04T04:29:46.541Z,30.10
2018-09-04T04:32:14.945Z,32.83
2018-09-04T04:34:42.981Z,29.87
2018-09-04T04:37:11.044Z,38.37
2018-09-04T04:39:39.064Z,30.70
2018-09-04T04:42:07.104Z,32.30
2018-09-04T04:44:35.148Z,31.63
2018-09-04T04:47:03.338Z,29.07
2018-09-04T04:49:31.368Z,27.43
2018-09-04T04:51:59.396Z,26.43
2018-09-04T04:54:27.440Z,25.90
2018-09-04T04:56:55.473Z,25.97
2018-09-04T04:59:23.513Z,31.40
2018-09-04T05:01:51.549Z,36.17
2018-09-04T05:04:19.584Z,33.87
2018-09-04T05:06:47.612Z,31.33
2018-09-04T05:09:15.653Z,38.73
2018-09-04T05:11:43.697Z,38.23
2018-09-04T05:14:11.760Z,28.70
2018-09-04T05:16:39.798Z,29.57
2018-09-04T05:19:07.853Z,32.20
2018-09-04T05:21:35.893Z,59.93
2018-09-04T05:24:04.912Z,29.20
2018-09-04T05:26:32.932Z,30.20
2018-09-04T05:29:00.972Z,28.90
2018-09-04T05:31:32.329Z,30.63
2018-09-04T05:34:00.378Z,26.80
2018-09-04T05:36:28.584Z,31.53
2018-09-04T05:38:56.605Z,30.27
2018-09-04T05:41:24.640Z,30.17
2018-09-04T05:43:55.399Z,26.53
2018-09-04T05:46:30.637Z,26.47
2018-09-04T05:48:59.020Z,21.70
2018-09-04T05:51:27.052Z,27.47
2018-09-04T05:53:55.205Z,24.07
2018-09-04T05:56:23.252Z,26.70
2018-09-04T05:58:51.280Z,22.40
2018-09-04T06:01:19.309Z,42.90
2018-09-04T06:03:47.450Z,26.13
2018-09-04T06:06:15.487Z,26.13
2018-09-04T06:08:43.504Z,26.13
2018-09-04T06:11:11.679Z,27.00
2018-09-04T06:13:39.756Z,28.00
2018-09-04T06:16:07.744Z,50.27
2018-09-04T06:18:35.788Z,50.53
2018-09-04T06:21:04.851Z,34.05
2018-09-04T06:23:32.889Z,39.40
2018-09-04T06:26:00.927Z,65.87
2018-09-04T06:28:29.001Z,71.73
2018-09-04T06:33:31.333Z,38.70
2018-09-04T06:35:59.317Z,39.58
2018-09-04T06:38:27.351Z,58.43
2018-09-04T06:40:55.388Z,48.63
2018-09-04T06:43:23.444Z,48.40
2018-09-04T06:45:51.498Z,42.73
2018-09-04T06:48:19.534Z,46.57
2018-09-04T06:50:47.793Z,35.83
2018-09-04T06:53:15.832Z,34.90
2018-09-04T06:55:43.866Z,44.03
2018-09-04T06:58:11.912Z,42.53
2018-09-04T07:00:40.020Z,44.80
2018-09-04T07:03:08.072Z,37.40
2018-09-04T07:05:42.236Z,38.23
2018-09-04T07:08:10.301Z,49.45
2018-09-04T07:10:38.341Z,51.68
2018-09-04T07:13:06.389Z,58.03
2018-09-04T07:15:34.470Z,57.00
2018-09-04T07:18:02.532Z,72.60
2018-09-04T07:20:30.852Z,71.10
2018-09-04T07:22:58.962Z,74.90
2018-09-04T07:25:27.012Z,59.70
2018-09-04T07:27:55.060Z,52.47
2018-09-04T07:30:23.169Z,73.73
2018-09-04T07:32:51.205Z,59.90
2018-09-04T07:35:19.242Z,57.03
2018-09-04T07:37:47.312Z,69.30
2018-09-04T07:40:15.405Z,63.58
2018-09-04T07:42:43.447Z,71.80
2018-09-04T07:45:11.500Z,68.87
2018-09-04T07:47:39.573Z,66.00
2018-09-04T07:50:08.198Z,68.67
2018-09-04T07:52:48.566Z,63.40
2018-09-04T07:55:16.601Z,58.73
2018-09-04T07:57:44.650Z,60.40
2018-09-04T08:00:12.676Z,53.45
2018-09-04T08:02:40.880Z,62.60
2018-09-04T08:05:08.918Z,57.23
2018-09-04T08:07:36.948Z,57.67
2018-09-04T08:10:05.190Z,56.50
2018-09-04T08:12:33.184Z,53.40
2018-09-04T08:15:01.224Z,57.33
2018-09-04T08:17:29.280Z,63.10
2018-09-04T08:19:57.341Z,59.17
2018-09-04T08:22:24.444Z,50.17
2018-09-04T08:24:52.469Z,57.90
2018-09-04T08:27:20.663Z,54.27
2018-09-04T08:29:48.698Z,61.00
2018-09-04T08:32:16.740Z,62.50
2018-09-04T08:34:44.825Z,58.83
2018-09-04T08:37:12.873Z,59.63
2018-09-04T08:39:40.981Z,55.53
2018-09-04T08:42:09.045Z,52.35
2018-09-04T08:44:37.092Z,61.23
2018-09-04T08:47:05.271Z,57.50
2018-09-04T08:49:33.289Z,60.27
2018-09-04T08:52:01.335Z,61.43
2018-09-04T08:54:29.405Z,52.60
2018-09-04T08:56:58.369Z,56.17
2018-09-04T08:59:26.402Z,54.13
2018-09-04T09:01:54.425Z,48.27
2018-09-04T09:04:22.541Z,51.05
2018-09-04T09:06:50.598Z,53.23
2018-09-04T09:09:18.625Z,50.23
2018-09-04T09:11:46.663Z,51.57
2018-09-04T09:14:14.700Z,45.10
2018-09-04T09:16:42.774Z,50.53
2018-09-04T09:19:10.789Z,49.47
2018-09-04T09:21:38.831Z,50.27
2018-09-04T09:24:07.060Z,44.65
2018-09-04T09:26:35.096Z,48.60
2018-09-04T09:29:03.173Z,53.83
2018-09-04T09:31:31.213Z,50.73
2018-09-04T09:33:59.249Z,46.73
2018-09-04T09:36:27.361Z,45.27
2018-09-04T09:38:55.343Z,43.13
2018-09-04T09:41:23.410Z,44.67
2018-09-04T09:43:51.454Z,38.10
2018-09-04T09:46:19.530Z,36.28
2018-09-04T09:48:47.508Z,40.03
2018-09-04T09:51:15.560Z,40.10
2018-09-04T09:53:43.642Z,39.67
2018-09-04T09:56:12.064Z,39.23
2018-09-04T09:58:40.719Z,38.00
2018-09-04T10:01:14.117Z,34.00
2018-09-04T10:03:47.470Z,40.93
2018-09-04T10:06:15.503Z,37.25
2018-09-04T10:08:43.536Z,38.43
2018-09-04T10:11:11.645Z,40.40
2018-09-04T10:13:39.701Z,37.77
2018-09-04T10:16:07.712Z,35.90
2018-09-04T10:18:35.768Z,32.97
2018-09-04T10:21:03.804Z,33.30
2018-09-04T10:23:32.118Z,36.30
2018-09-04T10:26:00.163Z,40.03
2018-09-04T10:28:28.192Z,37.73
2018-09-04T10:30:56.234Z,43.30
2018-09-04T10:33:24.289Z,38.93
2018-09-04T10:35:52.308Z,34.83
2018-09-04T10:38:24.198Z,36.07
2018-09-04T10:40:53.680Z,37.27
2018-09-04T10:43:21.764Z,36.53
2018-09-04T10:45:55.224Z,36.53
2018-09-04T10:48:24.217Z,37.13
2018-09-04T10:50:52.366Z,31.50
2018-09-04T10:53:20.616Z,29.10
2018-09-04T10:55:48.875Z,29.33
2018-09-04T10:58:16.813Z,28.47
2018-09-04T11:00:45.009Z,31.17
2018-09-04T11:03:13.049Z,30.67
2018-09-04T11:05:41.252Z,31.17
2018-09-04T11:08:09.316Z,25.87
2018-09-04T11:10:37.353Z,26.67
2018-09-04T11:13:05.747Z,28.60
2018-09-04T11:15:33.831Z,27.07
2018-09-04T11:18:01.830Z,28.17
2018-09-04T11:20:29.900Z,25.53
2018-09-04T11:22:57.935Z,26.33
2018-09-04T11:25:25.976Z,23.87
2018-09-04T11:27:54.036Z,27.13
2018-09-04T11:30:22.116Z,26.00
2018-09-04T11:32:50.162Z,25.90
2018-09-04T11:35:18.223Z,24.07
2018-09-04T11:37:46.278Z,24.23
2018-09-04T11:40:14.344Z,26.50
2018-09-04T11:42:42.400Z,27.37
2018-09-04T11:45:10.732Z,24.97
2018-09-04T11:47:40.485Z,24.83
2018-09-04T11:50:08.572Z,27.07
2018-09-04T11:52:36.753Z,26.40
2018-09-04T11:55:05.080Z,27.40
2018-09-04T11:57:33.335Z,26.13
2018-09-04T12:00:01.361Z,28.03
2018-09-04T12:02:33.908Z,26.93
2018-09-04T12:05:01.978Z,26.37
2018-09-04T12:07:30.040Z,26.37
2018-09-04T12:09:58.094Z,23.63
2018-09-04T12:12:30.628Z,25.07
2018-09-04T12:14:59.317Z,25.13
2018-09-04T12:17:27.409Z,21.77
2018-09-04T12:20:05.715Z,24.87
2018-09-04T12:22:33.761Z,23.77
2018-09-04T12:25:01.797Z,21.23
2018-09-04T12:27:29.869Z,21.53
2018-09-04T12:29:57.933Z,22.80
2018-09-04T12:32:25.960Z,22.10
2018-09-04T12:34:54.175Z,20.77
2018-09-04T12:37:22.212Z,22.35
2018-09-04T12:39:55.640Z,22.70
2018-09-04T12:42:23.718Z,19.17
2018-09-04T12:44:51.721Z,20.17
2018-09-04T12:47:19.751Z,22.55
2018-09-04T12:49:47.777Z,20.07
2018-09-04T12:52:15.857Z,20.13
2018-09-04T12:54:43.918Z,20.73
2018-09-04T12:57:11.926Z,20.83
2018-09-04T12:59:39.985Z,21.87
2018-09-04T13:02:07.985Z,20.13
2018-09-04T13:04:36.076Z,22.17
2018-09-04T13:07:04.855Z,19.13
2018-09-04T13:09:32.890Z,19.87
2018-09-04T13:12:00.932Z,18.40
2018-09-04T13:14:28.983Z,18.77
2018-09-04T13:17:00.982Z,17.50
2018-09-04T13:19:29.008Z,18.00
2018-09-04T13:21:57.063Z,19.80
2018-09-04T13:24:25.353Z,21.77
2018-09-04T13:26:53.377Z,18.13
2018-09-04T13:29:21.426Z,18.73
2018-09-04T13:31:49.570Z,17.50
2018-09-04T13:34:17.665Z,19.00
2018-09-04T13:36:45.664Z,19.13
2018-09-04T13:39:13.760Z,17.30
2018-09-04T13:41:41.956Z,17.37
2018-09-04T13:44:09.992Z,22.93
2018-09-04T13:46:38.016Z,23.07
2018-09-04T13:49:06.585Z,24.00
2018-09-04T13:51:34.724Z,24.23
2018-09-04T13:54:02.919Z,22.13
2018-09-04T13:56:30.933Z,23.43
2018-09-04T13:58:58.960Z,22.83
2018-09-04T14:01:26.988Z,22.27
2018-09-04T14:03:55.036Z,22.87
2018-09-04T14:06:23.157Z,19.60
2018-09-04T14:08:51.191Z,20.20
2018-09-04T14:11:19.250Z,22.43
2018-09-04T14:13:47.274Z,29.03
2018-09-04T14:16:17.110Z,19.48
2018-09-04T14:18:45.136Z,18.27
2018-09-04T14:21:13.192Z,18.60
2018-09-04T14:23:41.268Z,18.07
2018-09-04T14:26:09.332Z,19.37
2018-09-04T14:28:40.967Z,19.37
2018-09-04T14:31:05.619Z,18.33
2018-09-04T14:33:40.211Z,20.00
2018-09-04T14:36:08.273Z,19.90
2018-09-04T14:38:36.316Z,19.93
2018-09-04T14:41:05.441Z,19.55
2018-09-04T14:43:33.501Z,19.43
2018-09-04T14:46:01.620Z,22.87
2018-09-04T14:48:29.663Z,21.53
2018-09-04T14:50:57.710Z,20.53
2018-09-04T14:53:25.892Z,21.67
2018-09-04T14:55:53.928Z,22.63
2018-09-04T14:58:23.214Z,21.10
2018-09-04T15:00:51.255Z,23.43
2018-09-04T15:03:26.033Z,21.10
2018-09-04T15:05:54.092Z,20.20
2018-09-04T15:08:22.143Z,22.62
2018-09-04T15:10:50.186Z,21.53
2018-09-04T15:13:18.241Z,21.50
2018-09-04T15:15:46.288Z,23.33
2018-09-04T15:18:14.433Z,22.00
2018-09-04T15:20:42.505Z,24.97
2018-09-04T15:23:10.544Z,25.77
2018-09-04T15:25:38.588Z,24.63
2018-09-04T15:28:06.620Z,27.80
2018-09-04T15:30:34.652Z,25.73
2018-09-04T15:33:02.887Z,29.30
2018-09-04T15:35:30.932Z,25.27
2018-09-04T15:37:58.973Z,24.77
2018-09-04T15:40:27.005Z,24.27
2018-09-04T15:42:55.130Z,23.37
2018-09-04T15:45:23.181Z,24.18
2018-09-04T15:47:51.220Z,25.40
2018-09-04T15:50:19.249Z,24.07
2018-09-04T15:52:47.280Z,21.07
2018-09-04T15:55:15.320Z,23.70
2018-09-04T15:57:43.349Z,22.97
2018-09-04T16:00:11.411Z,23.40
2018-09-04T16:02:39.449Z,22.60
2018-09-04T16:05:07.484Z,21.13
2018-09-04T16:07:35.518Z,21.23
2018-09-04T16:10:03.825Z,21.97
2018-09-04T16:12:34.564Z,24.13
2018-09-04T16:17:36.895Z,22.23
2018-09-04T16:20:05.276Z,23.17
2018-09-04T16:22:33.308Z,20.40
2018-09-04T16:25:01.343Z,23.37
2018-09-04T16:27:29.388Z,19.77
2018-09-04T16:29:57.448Z,22.80
2018-09-04T16:32:25.494Z,20.43
2018-09-04T16:34:53.655Z,20.27
2018-09-04T16:37:21.596Z,19.37
2018-09-04T16:39:56.069Z,19.40
2018-09-04T16:42:24.111Z,21.70
2018-09-04T16:44:52.148Z,19.63
2018-09-04T16:47:20.191Z,20.85
2018-09-04T16:49:48.219Z,17.77
2018-09-04T16:52:16.272Z,22.83
2018-09-04T16:54:44.566Z,21.63
2018-09-04T16:57:12.588Z,19.43
2018-09-04T16:59:40.653Z,19.13
2018-09-04T17:02:08.681Z,20.23
2018-09-04T17:04:36.731Z,19.20
2018-09-04T17:07:04.903Z,20.00
2018-09-04T17:09:33.010Z,20.27
2018-09-04T17:12:01.048Z,20.17
2018-09-04T17:14:29.270Z,20.10
2018-09-04T17:16:57.321Z,21.43
2018-09-04T17:19:25.349Z,20.13
2018-09-04T17:21:53.568Z,18.93
2018-09-04T17:24:21.685Z,20.60
2018-09-04T17:26:49.717Z,22.00
2018-09-04T17:29:17.785Z,25.65
2018-09-04T17:31:45.820Z,23.03
2018-09-04T17:34:13.851Z,25.20
2018-09-04T17:36:41.960Z,23.63
2018-09-04T17:39:10.104Z,22.32
2018-09-04T17:41:38.180Z,22.23
2018-09-04T17:44:06.498Z,23.23
2018-09-04T17:46:34.548Z,23.27
2018-09-04T17:49:02.603Z,23.07
2018-09-04T17:51:30.660Z,23.17
2018-09-04T17:53:58.732Z,24.10
2018-09-04T17:56:26.812Z,23.90
2018-09-04T17:58:55.104Z,23.70
2018-09-04T18:01:23.229Z,24.87
2018-09-04T18:03:51.377Z,25.02
2018-09-04T18:06:19.424Z,26.83
2018-09-04T18:08:47.484Z,25.97
2018-09-04T18:11:15.567Z,28.60
2018-09-04T18:13:43.597Z,25.77
2018-09-04T18:16:11.636Z,26.23
2018-09-04T18:18:39.676Z,24.63
2018-09-04T18:21:07.740Z,30.33
2018-09-04T18:23:35.803Z,30.67
2018-09-04T18:26:04.869Z,30.00
2018-09-04T18:28:32.979Z,27.70
2018-09-04T18:31:01.075Z,25.57
2018-09-04T18:33:33.801Z,28.10
2018-09-04T18:36:01.923Z,33.87
2018-09-04T18:38:29.935Z,33.60
2018-09-04T18:40:57.989Z,31.30
2018-09-04T18:43:26.038Z,30.00
2018-09-04T18:45:55.362Z,27.37
2018-09-04T18:48:23.459Z,24.67
2018-09-04T18:50:51.539Z,23.13
2018-09-04T18:53:19.585Z,24.43
2018-09-04T18:55:47.671Z,23.37
2018-09-04T18:58:15.729Z,24.30
2018-09-04T19:00:44.138Z,23.95
2018-09-04T19:03:12.182Z,27.55
2018-09-04T19:05:40.249Z,26.47
2018-09-04T19:08:08.280Z,25.37
2018-09-04T19:10:36.337Z,24.60
2018-09-04T19:13:04.981Z,25.70
2018-09-04T19:15:33.004Z,26.10
2018-09-04T19:18:01.048Z,26.83
2018-09-04T19:20:29.085Z,27.47
2018-09-04T19:22:57.125Z,27.37
2018-09-04T19:25:25.169Z,27.43
2018-09-04T19:27:53.856Z,26.70
2018-09-04T19:30:21.911Z,25.90
2018-09-04T19:32:49.964Z,29.87
2018-09-04T19:35:18.025Z,27.47
2018-09-04T19:37:46.093Z,28.50
2018-09-04T19:40:20.808Z,29.17
2018-09-04T19:42:48.889Z,27.67
2018-09-04T19:45:16.946Z,31.05
2018-09-04T19:47:44.989Z,30.97
2018-09-04T19:50:13.204Z,28.52
2018-09-04T19:52:41.247Z,27.67
2018-09-04T19:55:10.424Z,28.77
2018-09-04T19:57:38.627Z,28.87
2018-09-04T20:00:07.552Z,30.50
2018-09-04T20:02:35.612Z,28.10
2018-09-04T20:05:03.755Z,25.63
2018-09-04T20:07:31.811Z,28.27
2018-09-04T20:09:59.829Z,28.90
2018-09-04T20:12:27.905Z,51.97
2018-09-04T20:14:55.952Z,52.60
2018-09-04T20:17:24.001Z,44.35
2018-09-04T20:19:52.079Z,49.03
2018-09-04T20:22:20.113Z,58.52
2018-09-04T20:24:48.186Z,53.87
2018-09-04T20:27:16.356Z,46.00
2018-09-04T20:29:44.404Z,40.00
2018-09-04T20:32:12.449Z,33.90
2018-09-04T20:34:40.556Z,31.97
2018-09-04T20:37:08.595Z,30.80
2018-09-04T20:39:36.667Z,30.13
2018-09-04T20:42:04.984Z,28.70
2018-09-04T20:44:33.013Z,27.13
2018-09-04T20:47:01.060Z,29.43
2018-09-04T20:49:29.118Z,30.80
2018-09-04T20:51:57.225Z,29.03
2018-09-04T20:54:25.298Z,30.30
2018-09-04T20:57:01.200Z,31.63
2018-09-04T20:59:40.577Z,31.07
2018-09-04T21:02:19.968Z,28.33
2018-09-04T21:04:59.364Z,30.93
2018-09-04T21:09:41.388Z,28.03
2018-09-04T21:12:09.804Z,30.05
2018-09-04T21:14:37.996Z,30.77
2018-09-04T21:17:06.144Z,27.93
2018-09-04T21:19:34.215Z,28.20
2018-09-04T21:22:02.301Z,24.60
2018-09-04T21:24:30.368Z,27.33
2018-09-04T21:26:58.435Z,29.00
2018-09-04T21:29:26.472Z,28.00
2018-09-04T21:31:54.521Z,28.40
2018-09-04T21:34:22.602Z,28.40
2018-09-04T21:36:50.648Z,26.40
2018-09-04T21:39:18.680Z,25.70
2018-09-04T21:41:46.731Z,29.17
2018-09-04T21:44:14.781Z,27.67
2018-09-04T21:46:42.985Z,27.87
2018-09-04T21:49:11.018Z,26.67
2018-09-04T21:51:39.044Z,28.97
2018-09-04T21:54:07.164Z,28.60
2018-09-04T21:56:35.190Z,27.13
2018-09-04T21:59:03.600Z,28.33
2018-09-04T22:01:31.652Z,26.73
2018-09-04T22:03:59.704Z,27.73
2018-09-04T22:06:27.745Z,30.60
2018-09-04T22:08:55.802Z,33.10
2018-09-04T22:11:23.853Z,31.07
2018-09-04T22:13:52.045Z,29.40
2018-09-04T22:16:20.079Z,31.80
2018-09-04T22:18:48.168Z,30.07
2018-09-04T22:21:16.199Z,27.23
2018-09-04T22:23:44.393Z,32.17
2018-09-04T22:26:12.423Z,31.97
2018-09-04T22:28:40.444Z,33.67
2018-09-04T22:31:08.643Z,33.00
2018-09-04T22:33:36.678Z,37.60
2018-09-04T22:36:06.069Z,31.37
2018-09-04T22:38:34.276Z,30.30
2018-09-04T22:41:02.321Z,34.60
2018-09-04T22:43:30.349Z,31.80
2018-09-04T22:45:58.407Z,35.17
2018-09-04T22:48:26.440Z,32.77
2018-09-04T22:50:59.905Z,32.70
2018-09-04T22:53:27.949Z,30.83
2018-09-04T22:55:55.968Z,34.73
2018-09-04T22:58:24.012Z,29.63
2018-09-04T23:00:52.067Z,31.13
2018-09-04T23:03:20.132Z,32.53
2018-09-04T23:05:48.179Z,32.63
2018-09-04T23:08:16.209Z,29.70
2018-09-04T23:10:44.276Z,31.23
2018-09-04T23:13:12.321Z,32.73
2018-09-04T23:15:43.637Z,32.40
2018-09-04T23:18:13.667Z,32.70
2018-09-04T23:20:41.830Z,34.30
2018-09-04T23:23:10.095Z,34.13
2018-09-04T23:25:38.166Z,31.30
2018-09-04T23:28:06.384Z,32.77
2018-09-04T23:30:34.455Z,30.87
2018-09-04T23:33:02.499Z,31.33
2018-09-04T23:35:30.540Z,35.53
2018-09-04T23:37:58.733Z,34.13
2018-09-04T23:40:26.767Z,33.07
2018-09-04T23:42:54.805Z,34.47
2018-09-04T23:45:22.847Z,31.40
2018-09-04T23:47:50.885Z,29.97
2018-09-04T23:50:18.926Z,31.20
2018-09-04T23:52:47.526Z,36.83
2018-09-04T23:55:15.520Z,33.03
2018-09-04T23:57:43.548Z,35.07
